Ana Sayfa
METAR-TAF:

METAR-TAF

Havaalanları :

Lüderitz, Namibya

Enlem: 26-41S, Boylam: 015-15E, yükseklik: 130 m

Güncel hava durumu gözlemi

Rapor saat 07:00 UTC de 1 saat ve 20 dakika önce yapıldı.
Rüzgar güneybatıdan 3 kt
Sıcaklık 15°C
Nem 51%
Basınç 1016 hPa

METAR: FYLZ 150700Z AUTO 23003KT //// // ////// 15/05 Q1016

Saat: 10:20 (08:20 UTC)

Tahmin

Rapor saat 05:00 UTC de 3 saat ve 20 dakika önce yapıldı.
Ayın 15'si saat 06 UTC'den ayın 15'si saat 15 UTC'ye kadar geçerli Tahmin
Rüzgar kuzeydan kt
Görüş mesafesi 10 km veya daha fazla
1500 m altında bulut yok ve kümülonimbus yok

TAF: FYLZ 150500Z 1506/1515 00000KT CAVOK

4.000'den fazla havaalanı için hava durumu gözlemleri ve tahminleri (METAR ve TAF raporları).

Kullanılabilir istasyonlar harita üzerinde sarı ve kırmızı noktalarla gösterilir.

İstasyonun adını görmek için fareyi noktanın üzerinde gezdirin.

Sonrasında hava gözlem ve tahminlerini görmek için tıklayın.

Haritayı değiştirmek için: yaklaştırmak için siyah artı işaretli yeşil düğmeye ve uzaklaştırmak için de eksi işaretli düğmeye hızla tıklayın; bitişik haritalar için yeşil okları kullanın.


METAR-TAF: